Time;durP1;ratioP1;P1;durP2;ratioP2;P2;SDS_P1;SDS_P2;PMS_P1;PMS_P2;Temp;Humidity;BMP_temperature;BMP_pressure;BME280_temperature;BME280_humidity;BME280_pressure;Samples;Min_cycle;Max_cycle;Signal;HPM_P1;HPM_P2
2023/06/26 00:02:46;;;;;;;14.10;9.90;;;;;;;18.19;60.88;100480.05;112751;1238;21949;-81
2023/06/26 00:06:27;;;;;;;11.70;10.50;;;;;;;18.10;61.24;100477.27;112372;1243;23711;-82
2023/06/26 00:09:16;;;;;;;11.90;10.70;;;;;;;18.03;61.45;100478.79;111927;1249;21974;-81
2023/06/26 00:12:21;;;;;;;11.90;10.60;;;;;;;17.99;61.66;100476.44;112010;1249;21979;-81
2023/06/26 00:15:12;;;;;;;12.00;10.70;;;;;;;17.98;61.91;100476.13;111967;1249;23021;-80
2023/06/26 00:17:46;;;;;;;13.90;12.10;;;;;;;17.98;61.98;100474.05;111450;1253;21972;-80
2023/06/26 00:20:41;;;;;;;14.10;9.60;;;;;;;17.97;61.99;100472.17;111507;1254;21973;-81
2023/06/26 00:23:24;;;;;;;13.20;11.30;;;;;;;17.93;62.03;100472.77;111621;1248;21963;-78
2023/06/26 00:26:47;;;;;;;13.30;11.90;;;;;;;17.89;62.03;100470.92;112246;1241;21941;-82
2023/06/26 00:29:46;;;;;;;14.60;10.90;;;;;;;17.81;62.24;100471.66;113194;1239;21968;-82
2023/06/26 00:32:42;;;;;;;11.80;10.60;;;;;;;17.74;62.42;100472.81;113149;1240;21952;-81
2023/06/26 00:35:35;;;;;;;13.00;11.00;;;;;;;17.70;62.57;100472.52;112694;1240;22940;-80
2023/06/26 00:38:24;;;;;;;12.30;10.70;;;;;;;17.69;62.69;100471.18;112856;1240;21963;-80
2023/06/26 00:41:12;;;;;;;12.70;11.40;;;;;;;17.69;62.81;100468.91;112577;1240;24215;-81
2023/06/26 00:43:59;;;;;;;14.40;11.20;;;;;;;17.70;62.97;100465.69;113336;1235;21927;-81
2023/06/26 00:47:18;;;;;;;12.50;11.20;;;;;;;17.67;63.19;100465.36;112487;1242;23730;-81
2023/06/26 00:50:47;;;;;;;14.60;11.10;;;;;;;17.64;63.39;100461.67;112143;1248;21968;-82
2023/06/26 00:53:27;;;;;;;12.00;10.70;;;;;;;17.62;63.54;100464.25;111944;1248;23027;-80
2023/06/26 00:56:35;;;;;;;;;;;;;;;;;;;;;
2023/06/26 01:00:04;;;;;;;13.70;12.10;;;;;;;17.52;63.37;100459.58;112018;1245;22394;-82
2023/06/26 01:03:23;;;;;;;;;;;;;;;;;;;;;
2023/06/26 01:07:07;;;;;;;;;;;;;;;;;;;;;
2023/06/26 01:10:07;;;;;;;18.90;14.00;;;;;;;17.35;63.59;100454.02;112084;1248;21957;-84
2023/06/26 01:13:12;;;;;;;;;;;;;;;;;;;;;
2023/06/26 01:16:21;;;;;;;15.20;12.40;;;;;;;17.24;63.69;100452.95;112007;1242;23024;-81
2023/06/26 01:20:11;;;;;;;;;;;;;;;;;;;;;
2023/06/26 01:23:31;;;;;;;13.30;12.00;;;;;;;17.11;63.86;100450.09;112639;1244;21942;-81
2023/06/26 01:26:40;;;;;;;13.50;12.10;;;;;;;16.99;63.86;100435.20;111864;1249;23027;-82
2023/06/26 01:30:03;;;;;;;16.10;13.00;;;;;;;16.99;64.04;100446.11;112398;1244;23564;-81
2023/06/26 01:32:58;;;;;;;18.20;12.60;;;;;;;16.97;64.06;100449.05;112238;1244;22703;-81
2023/06/26 01:35:57;;;;;;;13.40;12.00;;;;;;;16.95;64.28;100446.73;112629;1244;24089;-81
2023/06/26 01:39:40;;;;;;;;;;;;;;;;;;;;;
2023/06/26 01:43:11;;;;;;;16.70;12.50;;;;;;;16.88;64.81;100442.41;112023;1247;22971;-83
2023/06/26 01:46:26;;;;;;;15.60;12.20;;;;;;;16.84;64.72;100439.66;112345;1244;23829;-80
2023/06/26 01:49:52;;;;;;;11.80;10.50;;;;;;;16.79;64.75;100438.57;112491;1243;23690;-80
2023/06/26 01:52:58;;;;;;;14.40;11.60;;;;;;;16.77;64.85;100436.20;112465;1244;21939;-82
2023/06/26 01:56:18;;;;;;;19.70;12.80;;;;;;;16.74;65.11;100434.29;112433;1244;22083;-80
2023/06/26 01:59:02;;;;;;;15.70;12.60;;;;;;;16.73;65.14;100432.26;112631;1231;21937;-81
2023/06/26 02:01:51;;;;;;;13.60;12.20;;;;;;;16.72;64.95;100433.02;113586;1231;22721;-81
2023/06/26 02:04:53;;;;;;;;;;;;;;;;;;;;;
2023/06/26 02:08:22;;;;;;;15.10;13.60;;;;;;;16.67;65.01;100425.96;113633;1230;24365;-81
2023/06/26 02:11:30;;;;;;;12.70;11.50;;;;;;;16.62;65.15;100426.27;113779;1230;21961;-82
2023/06/26 02:14:40;;;;;;;12.50;11.30;;;;;;;16.57;65.34;100422.66;113881;1230;22682;-79
2023/06/26 02:17:18;;;;;;;13.50;12.20;;;;;;;16.58;65.41;100421.21;113761;1230;21937;-79
2023/06/26 02:20:21;;;;;;;14.70;13.00;;;;;;;16.61;65.43;100413.70;113558;1237;23672;-79
2023/06/26 02:23:12;;;;;;;13.70;12.40;;;;;;;16.57;65.28;100418.62;113202;1236;23513;-81
2023/06/26 02:26:36;;;;;;;14.90;13.30;;;;;;;16.52;65.24;100420.73;113432;1237;23638;-80
2023/06/26 02:29:50;;;;;;;16.90;13.30;;;;;;;16.45;65.25;100420.62;113486;1236;21977;-82
2023/06/26 02:32:24;;;;;;;14.40;13.10;;;;;;;16.43;65.44;100419.53;113264;1237;21963;-81
2023/06/26 02:35:19;;;;;;;15.40;13.90;;;;;;;16.41;65.46;100424.52;113389;1237;23603;-81
2023/06/26 02:38:30;;;;;;;18.00;13.70;;;;;;;16.39;65.49;100422.03;113626;1230;23559;-81
2023/06/26 02:41:21;;;;;;;14.80;13.40;;;;;;;16.34;65.56;100417.20;112421;1244;23690;-80
2023/06/26 02:44:19;;;;;;;14.90;12.50;;;;;;;16.33;65.49;100417.14;112249;1244;21953;-83
2023/06/26 02:47:42;;;;;;;13.80;12.40;;;;;;;16.28;65.71;100418.64;112256;1244;21958;-80
2023/06/26 02:51:32;;;;;;;15.90;14.10;;;;;;;16.22;65.79;100417.44;112107;1248;22564;-81
2023/06/26 02:58:28;;;;;;;13.60;12.00;;;;;;;16.20;66.45;100414.55;110261;1266;22115;-80
2023/06/26 03:01:07;;;;;;;13.90;12.60;;;;;;;16.26;66.17;100415.65;110206;1259;21996;-81
2023/06/26 03:04:07;;;;;;;14.30;12.90;;;;;;;16.27;66.06;100422.04;109535;1270;23611;-80
2023/06/26 03:07:00;;;;;;;22.60;13.20;;;;;;;16.29;65.83;100419.81;109636;1270;22127;-80
2023/06/26 03:09:57;;;;;;;16.80;13.30;;;;;;;16.30;65.74;100422.39;109632;1270;21995;-81
2023/06/26 03:12:44;;;;;;;18.10;12.80;;;;;;;16.29;65.67;100419.15;109324;1272;22002;-82
2023/06/26 03:15:32;;;;;;;15.70;14.20;;;;;;;16.28;65.83;100416.73;109443;1272;22495;-81
2023/06/26 03:18:29;;;;;;;26.00;23.40;;;;;;;16.32;65.74;100419.66;109647;1263;22470;-81
2023/06/26 03:21:22;;;;;;;15.50;13.70;;;;;;;16.33;65.90;100419.04;110796;1259;21993;-79
2023/06/26 03:24:29;;;;;;;18.50;14.30;;;;;;;16.37;65.93;100416.84;111065;1258;21982;-82
2023/06/26 03:27:28;;;;;;;14.40;13.00;;;;;;;16.42;65.87;100414.27;110986;1259;21968;-81
2023/06/26 03:30:57;;;;;;;25.30;20.20;;;;;;;16.46;66.10;100413.02;110981;1255;23063;-80
2023/06/26 03:33:33;;;;;;;17.70;16.00;;;;;;;16.49;65.60;100415.98;111124;1255;22106;-81
2023/06/26 03:36:09;;;;;;;15.20;13.70;;;;;;;16.50;65.43;100410.44;111359;1254;23815;-83
2023/06/26 03:38:51;;;;;;;16.60;13.00;;;;;;;16.51;65.25;100413.61;111064;1257;22815;-82
2023/06/26 03:41:30;;;;;;;17.40;14.60;;;;;;;16.53;65.61;100409.76;110800;1262;22746;-82
2023/06/26 03:44:09;;;;;;;15.00;13.50;;;;;;;16.62;65.84;100411.48;110692;1261;22005;-80
2023/06/26 03:47:08;;;;;;;16.30;13.40;;;;;;;16.69;65.52;100411.94;110820;1261;23818;-81
2023/06/26 03:49:46;;;;;;;14.90;13.40;;;;;;;16.73;65.36;100414.50;111036;1259;22116;-80
2023/06/26 03:52:23;;;;;;;15.40;13.70;;;;;;;16.74;65.08;100414.73;111039;1259;21984;-83
2023/06/26 03:54:58;;;;;;;16.30;13.40;;;;;;;16.77;65.12;100414.42;111282;1253;21974;-83
2023/06/26 03:57:38;;;;;;;15.40;13.70;;;;;;;16.80;65.13;100407.54;111746;1249;21982;-83
2023/06/26 04:00:20;;;;;;;16.50;14.00;;;;;;;16.84;65.01;100409.09;112119;1242;23021;-81
2023/06/26 04:03:11;;;;;;;15.30;13.60;;;;;;;16.84;65.00;100406.10;112692;1242;21964;-83
2023/06/26 04:05:49;;;;;;;16.00;14.20;;;;;;;16.87;65.01;100403.63;112219;1247;22036;-81
2023/06/26 04:08:28;;;;;;;16.90;14.60;;;;;;;16.91;64.97;100405.30;111365;1252;23696;-81
2023/06/26 04:10:59;;;;;;;15.20;13.60;;;;;;;16.98;64.95;100408.05;111348;1252;23622;-82
2023/06/26 04:13:32;;;;;;;15.90;13.90;;;;;;;17.06;64.95;100409.27;111509;1252;21972;-82
2023/06/26 04:16:06;;;;;;;16.10;13.90;;;;;;;17.15;64.74;100406.95;111532;1252;23691;-82
2023/06/26 04:18:42;;;;;;;15.20;13.80;;;;;;;17.21;64.56;100404.96;111203;1252;22983;-82
2023/06/26 04:21:25;;;;;;;17.40;13.70;;;;;;;17.16;64.57;100378.40;111080;1258;22990;-83
2023/06/26 04:24:02;;;;;;;15.80;12.90;;;;;;;17.41;64.58;100406.12;111191;1254;21988;-83
2023/06/26 04:26:40;;;;;;;14.40;13.00;;;;;;;17.53;64.35;100401.48;111349;1251;23044;-83
2023/06/26 04:29:30;;;;;;;16.40;14.20;;;;;;;17.66;64.23;100401.15;111523;1251;22108;-83
2023/06/26 04:32:08;;;;;;;22.10;14.40;;;;;;;17.83;64.19;100399.88;111643;1251;22005;-82
2023/06/26 04:34:47;;;;;;;16.80;15.00;;;;;;;18.01;63.92;100402.88;111817;1251;21964;-82
2023/06/26 04:37:32;;;;;;;15.60;14.10;;;;;;;18.20;63.70;100401.38;111650;1251;22729;-82
2023/06/26 04:40:10;;;;;;;18.70;14.60;;;;;;;18.39;63.30;100398.84;111851;1245;21970;-83
2023/06/26 04:42:59;;;;;;;;;;;;;;;;;;;;;
2023/06/26 04:45:34;;;;;;;23.20;14.80;;;;;;;18.83;62.69;100394.89;112206;1242;23580;-79
2023/06/26 04:48:06;;;;;;;28.60;25.80;;;;;;;19.10;62.45;100391.76;112535;1242;21998;-82
2023/06/26 04:50:39;;;;;;;18.40;14.90;;;;;;;19.39;61.89;100395.65;112554;1242;21952;-82
2023/06/26 04:53:09;;;;;;;15.70;12.70;;;;;;;19.69;61.48;100394.79;112579;1242;21979;-83
2023/06/26 04:55:53;;;;;;;17.30;14.30;;;;;;;20.02;60.53;100395.33;112456;1242;21961;-81
2023/06/26 04:58:25;;;;;;;19.50;14.50;;;;;;;20.31;60.27;100396.81;112517;1242;23672;-81
2023/06/26 05:00:56;;;;;;;16.20;12.60;;;;;;;20.72;59.99;100397.70;112317;1242;23048;-82
2023/06/26 05:03:43;;;;;;;15.70;12.80;;;;;;;21.14;59.19;100396.06;112522;1242;22007;-83
2023/06/26 05:06:23;;;;;;;15.30;12.80;;;;;;;21.60;58.66;100393.02;112535;1242;22716;-82
2023/06/26 05:09:07;;;;;;;20.90;12.20;;;;;;;22.09;57.24;100390.89;112259;1242;24354;-81
2023/06/26 05:11:36;;;;;;;;;;;;;;;22.61;56.83;100395.65;112484;1242;22844;-81
2023/06/26 05:14:07;;;;;;;12.10;10.80;;;;;;;23.01;55.52;100393.31;112535;1242;21984;-81
2023/06/26 05:16:54;;;;;;;;;;;;;;;;;;;;;
2023/06/26 05:19:56;;;;;;;11.80;10.60;;;;;;;23.67;52.52;100390.45;112349;1242;22717;-80
2023/06/26 05:22:40;;;;;;;15.80;11.60;;;;;;;23.93;52.28;100392.30;112589;1242;21967;-80
2023/06/26 05:25:29;;;;;;;15.40;12.00;;;;;;;24.27;51.68;100388.04;112417;1242;21955;-81
2023/06/26 05:28:21;;;;;;;13.30;10.10;;;;;;;24.66;51.13;100393.02;112218;1242;21987;-81
2023/06/26 05:31:33;;;;;;;14.70;10.10;;;;;;;25.02;49.95;100389.20;112340;1242;21954;-82
2023/06/26 05:34:11;;;;;;;13.90;10.70;;;;;;;25.28;49.48;100389.36;112267;1242;23706;-80
2023/06/26 05:39:59;;;;;;;13.40;10.10;;;;;;;25.91;47.71;100388.90;111863;1248;21972;-81
2023/06/26 05:42:45;;;;;;;12.20;10.50;;;;;;;26.13;47.42;100389.19;112022;1248;24306;-80
2023/06/26 05:46:03;;;;;;;13.10;10.10;;;;;;;26.30;46.47;100387.42;111992;1248;21956;-80
2023/06/26 05:48:47;;;;;;;13.30;11.40;;;;;;;26.50;46.10;100388.56;111467;1254;23719;-81
2023/06/26 05:56:12;;;;;;;11.80;9.70;;;;;;;27.11;45.42;100368.75;110702;1264;21981;-81
2023/06/26 06:00:25;;;;;;;;;;;;;;;;;;;;;
2023/06/26 06:03:18;;;;;;;12.70;9.40;;;;;;;27.68;43.93;100374.16;108971;1277;23054;-83
2023/06/26 06:06:02;;;;;;;;;;;;;;;;;;;;;
2023/06/26 06:08:50;;;;;;;11.10;10.00;;;;;;;28.14;42.42;100373.97;109373;1275;22080;-81
2023/06/26 06:11:33;;;;;;;10.60;8.60;;;;;;;28.31;41.39;100374.05;109384;1272;22062;-83
2023/06/26 06:14:11;;;;;;;10.40;7.80;;;;;;;28.36;41.32;100375.41;109814;1265;22252;-84
2023/06/26 06:20:16;;;;;;;9.00;7.20;;;;;;;28.85;40.16;100381.44;110238;1265;22014;-83
2023/06/26 06:23:13;;;;;;;10.00;6.90;;;;;;;29.07;40.20;100378.36;110287;1265;21993;-83
2023/06/26 06:25:42;;;;;;;8.10;7.30;;;;;;;29.24;39.33;100376.01;109890;1265;22591;-87
2023/06/26 06:28:16;;;;;;;9.70;7.50;;;;;;;29.34;39.11;100378.38;110008;1265;21977;-85
2023/06/26 06:31:06;;;;;;;9.50;7.30;;;;;;;29.30;38.18;100377.98;110282;1265;23174;-84
2023/06/26 06:33:34;;;;;;;7.80;6.90;;;;;;;29.13;38.59;100377.09;111123;1254;21980;-79
2023/06/26 06:36:07;;;;;;;9.90;7.60;;;;;;;29.15;38.98;100378.07;111618;1248;22056;-85
2023/06/26 06:38:55;;;;;;;9.10;7.80;;;;;;;29.36;39.23;100381.09;111958;1243;22886;-82
2023/06/26 06:41:32;;;;;;;13.40;8.10;;;;;;;29.49;38.26;100383.30;111889;1247;22417;-81
2023/06/26 06:44:13;;;;;;;8.20;7.50;;;;;;;29.55;38.50;100381.98;112133;1247;21957;-82
2023/06/26 06:46:47;;;;;;;9.60;7.80;;;;;;;29.69;38.15;100381.79;112095;1247;23044;-84
2023/06/26 06:49:25;;;;;;;11.70;7.70;;;;;;;29.87;37.78;100381.34;111384;1253;21950;-77
2023/06/26 06:51:55;;;;;;;10.60;9.40;;;;;;;29.99;37.46;100379.50;111258;1253;23694;-77
2023/06/26 06:54:27;;;;;;;;;;;;;;;30.00;37.06;100380.46;111354;1249;23043;-77
2023/06/26 06:56:55;;;;;;;11.30;10.30;;;;;;;29.91;37.50;100377.46;111330;1252;23687;-78
2023/06/26 06:59:27;;;;;;;8.70;7.80;;;;;;;29.99;37.98;100378.86;111593;1249;21968;-75
2023/06/26 07:01:59;;;;;;;9.90;7.40;;;;;;;30.19;37.84;100378.78;111343;1249;22979;-78
2023/06/26 07:04:28;;;;;;;9.60;7.90;;;;;;;30.40;37.27;100375.67;111246;1252;23694;-78
2023/06/26 07:06:56;;;;;;;8.00;7.10;;;;;;;30.39;36.39;100374.44;111148;1249;22023;-76
2023/06/26 07:09:25;;;;;;;14.00;10.40;;;;;;;30.38;36.89;100376.50;111490;1253;22760;-82
2023/06/26 07:11:53;;;;;;;13.60;7.40;;;;;;;30.51;36.91;100376.68;111661;1249;21935;-84
2023/06/26 07:14:22;;;;;;;9.20;7.70;;;;;;;30.63;36.69;100377.69;111911;1249;21998;-82
2023/06/26 07:16:56;;;;;;;9.80;6.90;;;;;;;30.76;36.59;100377.55;111654;1249;21971;-81
2023/06/26 07:19:28;;;;;;;10.20;7.60;;;;;;;30.88;36.48;100374.27;111712;1249;23600;-84
2023/06/26 07:22:05;;;;;;;11.80;7.50;;;;;;;31.01;36.06;100373.10;111648;1248;23021;-84
2023/06/26 07:24:36;;;;;;;7.50;6.80;;;;;;;31.13;35.65;100371.39;112211;1245;23688;-82
2023/06/26 07:27:07;;;;;;;10.70;6.60;;;;;;;31.16;35.54;100369.48;112371;1240;21957;-82
2023/06/26 07:29:36;;;;;;;8.30;7.00;;;;;;;31.23;35.35;100370.50;112641;1242;21954;-84
2023/06/26 07:32:22;;;;;;;6.70;6.00;;;;;;;31.29;35.28;100368.35;112506;1242;22878;-84
2023/06/26 07:35:12;;;;;;;11.10;6.60;;;;;;;31.45;35.36;100366.33;113010;1237;23042;-85
2023/06/26 07:37:55;;;;;;;6.50;5.80;;;;;;;31.49;34.93;100365.23;113068;1241;21945;-85
2023/06/26 07:40:36;;;;;;;6.40;5.80;;;;;;;31.45;35.05;100364.52;112759;1241;21954;-83
2023/06/26 07:43:11;;;;;;;12.50;6.40;;;;;;;31.49;35.03;100363.87;112833;1241;24092;-84
2023/06/26 07:45:46;;;;;;;8.10;5.60;;;;;;;31.60;34.52;100365.30;112519;1241;21974;-83
2023/06/26 07:48:20;;;;;;;6.60;6.00;;;;;;;31.71;34.05;100362.30;113331;1236;22253;-83
2023/06/26 07:50:51;;;;;;;7.30;6.40;;;;;;;31.79;33.98;100363.30;113656;1237;22867;-82
2023/06/26 07:53:20;;;;;;;6.80;6.20;;;;;;;31.80;33.92;100359.70;113489;1236;21963;-83
2023/06/26 07:55:49;;;;;;;8.10;6.40;;;;;;;31.80;33.90;100360.45;112494;1237;23720;-84
2023/06/26 07:58:18;;;;;;;10.10;5.40;;;;;;;31.88;33.79;100356.92;113205;1237;23573;-84
2023/06/26 08:00:49;;;;;;;6.00;5.30;;;;;;;31.85;33.55;100354.00;113052;1241;21945;-83
2023/06/26 08:03:17;;;;;;;8.60;5.50;;;;;;;31.92;33.95;100351.02;112285;1242;21943;-83
2023/06/26 08:06:01;;;;;;;6.20;5.10;;;;;;;32.00;33.28;100350.38;112343;1246;22833;-82
2023/06/26 08:08:37;;;;;;;6.10;5.50;;;;;;;32.02;33.29;100352.09;112304;1246;22043;-82
2023/06/26 08:11:10;;;;;;;8.20;5.30;;;;;;;32.00;32.99;100348.02;111911;1250;21992;-84
2023/06/26 08:13:40;;;;;;;6.70;5.80;;;;;;;31.97;33.03;100343.25;111931;1246;21968;-83
2023/06/26 08:16:15;;;;;;;7.20;4.60;;;;;;;31.98;32.80;100339.89;111910;1250;23760;-83
2023/06/26 08:18:44;;;;;;;6.30;5.70;;;;;;;32.07;32.82;100338.63;111915;1243;21941;-84
2023/06/26 08:21:13;;;;;;;7.10;5.40;;;;;;;32.15;32.27;100341.80;112124;1248;22896;-82
2023/06/26 08:23:42;;;;;;;6.70;5.10;;;;;;;32.11;31.76;100338.36;112199;1246;21995;-82
2023/06/26 08:26:15;;;;;;;5.90;5.30;;;;;;;32.06;32.19;100335.19;112015;1250;21965;-81
2023/06/26 08:28:45;;;;;;;6.00;4.60;;;;;;;32.14;32.31;100337.27;111969;1245;21969;-84
2023/06/26 08:31:17;;;;;;;4.90;4.30;;;;;;;32.19;31.83;100335.30;112065;1246;23731;-83
2023/06/26 08:33:49;;;;;;;9.20;4.90;;;;;;;32.22;30.98;100334.31;111896;1246;23825;-85
2023/06/26 08:36:18;;;;;;;6.90;4.70;;;;;;;32.06;30.89;100333.93;111956;1244;23133;-83
2023/06/26 08:38:50;;;;;;;7.40;4.60;;;;;;;31.73;30.86;100329.89;112383;1240;21943;-83
2023/06/26 08:41:28;;;;;;;6.60;4.80;;;;;;;31.53;31.49;100333.55;112134;1246;22070;-84
2023/06/26 08:43:58;;;;;;;5.70;4.50;;;;;;;31.36;31.68;100329.76;112164;1242;22031;-83
2023/06/26 08:46:34;;;;;;;5.30;4.70;;;;;;;31.22;31.55;100330.92;113036;1242;23695;-83
2023/06/26 08:49:40;;;;;;;10.50;4.90;;;;;;;31.04;31.37;100329.59;112999;1242;21948;-84
2023/06/26 08:52:49;;;;;;;;;;;;;;;30.70;31.50;100327.85;112650;1242;21990;-84
2023/06/26 08:55:23;;;;;;;5.20;4.60;;;;;;;30.54;32.32;100328.73;112102;1248;22926;-85
2023/06/26 08:57:56;;;;;;;4.40;4.00;;;;;;;30.69;31.98;100323.94;112167;1244;22517;-84
2023/06/26 09:00:28;;;;;;;5.70;4.60;;;;;;;30.87;31.87;100318.42;112156;1244;22023;-83
2023/06/26 09:02:59;;;;;;;9.80;4.50;;;;;;;31.07;31.27;100317.30;111898;1250;23099;-82
2023/06/26 09:05:27;;;;;;;13.60;5.20;;;;;;;31.22;30.84;100321.58;111431;1255;23007;-82
2023/06/26 09:07:59;;;;;;;7.40;4.80;;;;;;;31.34;30.94;100320.90;111594;1255;24280;-83
2023/06/26 09:10:31;;;;;;;5.10;3.90;;;;;;;31.38;30.97;100318.44;111551;1255;23829;-83
2023/06/26 09:13:03;;;;;;;4.60;4.20;;;;;;;31.42;30.75;100312.58;111413;1255;21981;-83
2023/06/26 09:15:55;;;;;;;4.10;3.70;;;;;;;31.40;30.34;100311.90;111380;1257;21975;-84
2023/06/26 09:18:29;;;;;;;4.50;3.80;;;;;;;31.38;30.15;100310.39;111427;1254;21960;-83
2023/06/26 09:21:16;;;;;;;7.30;4.80;;;;;;;31.40;30.33;100305.42;111248;1255;21995;-83
2023/06/26 09:23:45;;;;;;;9.30;5.40;;;;;;;31.54;30.28;100300.13;111795;1249;22653;-82
2023/06/26 09:26:16;;;;;;;5.20;4.50;;;;;;;31.63;30.29;100304.05;111924;1250;21971;-82
2023/06/26 09:28:52;;;;;;;9.20;4.90;;;;;;;31.57;30.00;100304.63;112249;1245;23060;-84
2023/06/26 09:31:26;;;;;;;8.70;4.70;;;;;;;31.35;30.04;100307.52;112376;1245;22013;-82
2023/06/26 09:34:23;;;;;;;8.40;5.00;;;;;;;30.92;30.55;100302.38;112998;1239;22096;-84
2023/06/26 09:36:58;;;;;;;4.90;3.70;;;;;;;30.65;31.00;100306.98;112821;1239;22001;-83
2023/06/26 09:39:33;;;;;;;6.00;4.60;;;;;;;30.47;31.43;100303.55;112653;1238;21903;-83
2023/06/26 09:42:10;;;;;;;5.50;4.50;;;;;;;30.43;31.91;100299.56;112857;1241;21977;-84
2023/06/26 09:44:47;;;;;;;5.20;4.00;;;;;;;30.53;31.88;100296.59;112889;1241;21965;-84
2023/06/26 09:47:22;;;;;;;6.90;4.90;;;;;;;30.59;31.57;100299.58;113143;1239;21939;-85
2023/06/26 09:49:57;;;;;;;10.90;4.20;;;;;;;30.70;31.40;100301.48;113054;1241;21936;-82
2023/06/26 09:52:28;;;;;;;10.40;4.40;;;;;;;30.76;30.98;100296.16;113015;1241;21955;-83
2023/06/26 09:55:13;;;;;;;4.20;3.80;;;;;;;30.77;30.68;100290.27;112740;1246;23744;-84
2023/06/26 09:57:48;;;;;;;4.70;3.90;;;;;;;30.67;30.68;100280.44;112741;1242;21937;-83
2023/06/26 10:00:31;;;;;;;7.20;3.90;;;;;;;30.67;30.90;100281.02;112516;1243;21955;-83
2023/06/26 10:03:04;;;;;;;5.70;4.10;;;;;;;30.78;31.52;100275.02;112234;1246;21961;-84
2023/06/26 10:05:34;;;;;;;8.40;4.70;;;;;;;30.88;31.52;100272.52;112065;1249;21998;-83
2023/06/26 10:08:14;;;;;;;7.50;4.30;;;;;;;30.85;31.11;100272.95;111501;1256;21984;-83
2023/06/26 10:10:46;;;;;;;8.50;4.00;;;;;;;30.68;31.32;100278.91;111448;1257;23173;-83
2023/06/26 10:13:46;;;;;;;4.50;4.00;;;;;;;30.51;31.11;100276.20;111509;1254;22009;-84
2023/06/26 10:16:42;;;;;;;6.30;4.70;;;;;;;30.22;31.59;100274.34;111088;1259;22386;-87
2023/06/26 10:19:35;;;;;;;5.10;3.90;;;;;;;30.03;31.71;100278.02;111293;1252;23684;-85
2023/06/26 10:22:50;;;;;;;4.20;3.80;;;;;;;29.90;32.14;100269.35;111685;1248;23189;-85
2023/06/26 10:25:51;;;;;;;4.70;4.30;;;;;;;29.86;32.27;100263.08;111538;1248;21974;-87
2023/06/26 10:29:02;;;;;;;4.90;3.70;;;;;;;29.85;32.49;100257.41;112016;1248;23030;-86
2023/06/26 10:32:08;;;;;;;8.20;4.30;;;;;;;29.87;32.39;100254.89;112554;1244;22017;-88
2023/06/26 10:35:27;;;;;;;5.00;4.40;;;;;;;29.92;32.60;100252.35;111878;1251;22988;-88
2023/06/26 10:38:31;;;;;;;7.00;4.40;;;;;;;29.91;32.29;100251.10;112000;1251;21990;-89
2023/06/26 10:41:15;;;;;;;5.50;4.40;;;;;;;29.82;31.66;100233.73;111706;1251;23403;-86
2023/06/26 10:44:09;;;;;;;5.00;4.10;;;;;;;29.90;31.95;100242.47;112132;1246;21967;-86
2023/06/26 10:47:03;;;;;;;4.70;4.20;;;;;;;29.92;32.18;100240.48;112532;1246;23685;-87
2023/06/26 10:49:42;;;;;;;6.20;3.90;;;;;;;29.81;32.41;100238.34;112290;1246;21965;-84
2023/06/26 10:52:13;;;;;;;4.90;4.40;;;;;;;29.82;32.60;100232.92;112394;1242;21961;-85
2023/06/26 10:54:46;;;;;;;6.30;4.10;;;;;;;29.94;32.65;100233.79;113093;1238;22039;-82
2023/06/26 10:57:34;;;;;;;5.40;3.90;;;;;;;30.06;32.63;100235.10;113119;1237;22205;-83
2023/06/26 11:00:15;;;;;;;3.60;3.30;;;;;;;30.12;32.15;100236.71;113093;1236;21961;-85
2023/06/26 11:02:53;;;;;;;4.30;3.60;;;;;;;30.13;31.85;100231.95;113191;1236;22345;-83
2023/06/26 11:05:33;;;;;;;7.50;3.80;;;;;;;30.10;31.38;100231.92;112658;1241;22126;-84
2023/06/26 11:08:08;;;;;;;4.10;3.60;;;;;;;30.10;31.42;100233.73;112896;1241;21934;-83
2023/06/26 11:10:55;;;;;;;5.10;3.40;;;;;;;30.14;31.35;100228.94;112082;1247;22626;-83
2023/06/26 11:13:30;;;;;;;5.60;4.10;;;;;;;30.15;31.19;100227.63;112259;1247;22385;-83
2023/06/26 11:16:15;;;;;;;4.00;3.40;;;;;;;30.14;31.50;100226.63;109997;1247;2600337;-82
2023/06/26 11:18:59;;;;;;;5.80;3.70;;;;;;;30.19;31.92;100229.17;112222;1244;21958;-82
2023/06/26 11:21:29;;;;;;;6.00;4.00;;;;;;;30.27;32.19;100226.36;112076;1248;22220;-80
2023/06/26 11:24:13;;;;;;;4.80;3.40;;;;;;;30.37;32.02;100221.53;112532;1244;22387;-80
2023/06/26 11:26:48;;;;;;;4.20;3.70;;;;;;;30.41;31.99;100219.59;112266;1248;21981;-81
2023/06/26 11:29:23;;;;;;;4.20;3.40;;;;;;;30.46;31.57;100218.11;112547;1242;21977;-81
2023/06/26 11:32:22;;;;;;;4.70;3.60;;;;;;;30.43;31.15;100213.06;112065;1249;21963;-82
2023/06/26 11:34:57;;;;;;;4.70;3.70;;;;;;;30.41;31.42;100208.08;111524;1254;21969;-82
2023/06/26 11:37:29;;;;;;;6.50;3.70;;;;;;;30.46;31.34;100201.41;111451;1254;22004;-81
2023/06/26 11:40:02;;;;;;;4.30;3.80;;;;;;;30.51;31.40;100205.15;111712;1252;22021;-82
2023/06/26 11:42:33;;;;;;;7.70;3.80;;;;;;;30.53;31.38;100210.88;111411;1257;21974;-81
2023/06/26 11:45:06;;;;;;;4.30;3.80;;;;;;;30.48;31.14;100201.68;110948;1256;22256;-80
2023/06/26 11:47:54;;;;;;;4.20;3.80;;;;;;;30.46;31.29;100208.04;111516;1256;23028;-82
2023/06/26 11:50:27;;;;;;;7.50;3.90;;;;;;;30.41;31.48;100203.48;111484;1256;21966;-81
2023/06/26 11:53:02;;;;;;;6.80;3.90;;;;;;;30.43;31.54;100199.80;111559;1252;23600;-81
2023/06/26 11:55:44;;;;;;;5.20;3.60;;;;;;;30.43;31.52;100201.64;111745;1252;23738;-82
2023/06/26 11:58:25;;;;;;;4.50;3.50;;;;;;;30.48;31.73;100201.30;111637;1252;21966;-82
2023/06/26 12:01:22;;;;;;;5.80;4.30;;;;;;;30.51;31.49;100197.49;111483;1252;21910;-82
2023/06/26 12:04:04;;;;;;;5.00;4.20;;;;;;;30.54;31.33;100193.41;112391;1238;21979;-80
2023/06/26 12:06:48;;;;;;;8.40;4.10;;;;;;;30.49;31.35;100186.77;113085;1238;21960;-84
2023/06/26 12:09:22;;;;;;;5.90;3.60;;;;;;;30.44;31.41;100189.21;112416;1243;21951;-82
2023/06/26 12:11:56;;;;;;;3.70;3.10;;;;;;;30.48;31.05;100185.86;111957;1247;21974;-81
2023/06/26 12:14:31;;;;;;;3.70;3.40;;;;;;;30.50;30.73;100178.20;112004;1247;22556;-84
2023/06/26 12:17:12;;;;;;;5.80;3.30;;;;;;;30.51;30.92;100177.47;111943;1249;23597;-85
2023/06/26 12:19:47;;;;;;;4.90;3.60;;;;;;;30.56;31.00;100175.66;111959;1246;21965;-84
2023/06/26 12:22:19;;;;;;;5.90;3.70;;;;;;;30.54;30.99;100176.70;112293;1246;22098;-84
2023/06/26 12:24:49;;;;;;;4.00;3.70;;;;;;;30.45;30.63;100171.36;112234;1246;21953;-85
2023/06/26 12:27:20;;;;;;;3.70;3.30;;;;;;;30.24;30.81;100171.38;112201;1242;22079;-85
2023/06/26 12:29:54;;;;;;;3.90;3.40;;;;;;;30.12;31.21;100165.52;112748;1237;23675;-84
2023/06/26 12:32:25;;;;;;;5.50;3.30;;;;;;;30.13;31.75;100162.48;112842;1237;23323;-85
2023/06/26 12:35:09;;;;;;;7.90;4.10;;;;;;;30.24;31.91;100161.23;113228;1233;21965;-84
2023/06/26 12:37:50;;;;;;;4.10;3.70;;;;;;;30.29;31.45;100161.11;113610;1233;22392;-84
2023/06/26 12:40:22;;;;;;;4.70;3.50;;;;;;;30.21;31.53;100148.91;113420;1233;23667;-82
2023/06/26 12:43:03;;;;;;;5.70;3.50;;;;;;;30.21;31.45;100147.73;113593;1233;23617;-84
2023/06/26 12:45:49;;;;;;;5.00;3.90;;;;;;;30.27;31.69;100158.85;113366;1239;24355;-85
2023/06/26 12:48:20;;;;;;;3.30;2.90;;;;;;;30.35;31.90;100159.16;113411;1239;21983;-85
2023/06/26 12:50:59;;;;;;;5.80;3.90;;;;;;;30.45;32.06;100156.00;113297;1239;21954;-82
2023/06/26 12:53:35;;;;;;;4.40;3.40;;;;;;;30.57;31.66;100152.26;112803;1242;22003;-87
2023/06/26 12:56:12;;;;;;;4.20;3.70;;;;;;;30.59;31.19;100148.75;112743;1245;21997;-88
2023/06/26 12:59:03;;;;;;;4.00;3.20;;;;;;;30.45;30.80;100152.08;112286;1245;23034;-90
2023/06/26 13:01:41;;;;;;;10.80;5.90;;;;;;;30.39;31.37;100146.08;112271;1245;21992;-90
2023/06/26 13:04:13;;;;;;;5.40;3.70;;;;;;;30.42;31.57;100139.60;112253;1242;21978;-87
2023/06/26 13:06:56;;;;;;;5.90;3.70;;;;;;;30.47;31.73;100135.92;111910;1248;21958;-86